sensor_id;sensor_type;location;lat;lon;timestamp;P1;durP1;ratioP1;P2;durP2;ratioP2
72674;SDS011;60752;53.962;9.614;2023-07-29T00:07:34;5.80;;;3.00;;
72674;SDS011;60752;53.962;9.614;2023-07-29T00:37:36;9.87;;;4.77;;
72674;SDS011;60752;53.962;9.614;2023-07-29T01:07:39;10.50;;;4.80;;
72674;SDS011;60752;53.962;9.614;2023-07-29T01:37:46;13.80;;;5.63;;
72674;SDS011;60752;53.962;9.614;2023-07-29T02:07:49;13.17;;;5.73;;
72674;SDS011;60752;53.962;9.614;2023-07-29T02:37:51;13.67;;;6.87;;
72674;SDS011;60752;53.962;9.614;2023-07-29T03:07:52;13.93;;;6.63;;
72674;SDS011;60752;53.962;9.614;2023-07-29T03:37:54;7.20;;;3.40;;
72674;SDS011;60752;53.962;9.614;2023-07-29T04:07:55;7.70;;;3.00;;
72674;SDS011;60752;53.962;9.614;2023-07-29T04:37:57;9.23;;;4.70;;
72674;SDS011;60752;53.962;9.614;2023-07-29T05:07:59;10.10;;;5.17;;
72674;SDS011;60752;53.962;9.614;2023-07-29T05:38:00;12.20;;;6.90;;
72674;SDS011;60752;53.962;9.614;2023-07-29T06:08:02;17.60;;;8.97;;
72674;SDS011;60752;53.962;9.614;2023-07-29T06:38:04;14.13;;;7.33;;
72674;SDS011;60752;53.962;9.614;2023-07-29T07:08:05;13.20;;;7.80;;
72674;SDS011;60752;53.962;9.614;2023-07-29T07:38:07;15.13;;;7.63;;
72674;SDS011;60752;53.962;9.614;2023-07-29T08:08:09;14.73;;;6.80;;
72674;SDS011;60752;53.962;9.614;2023-07-29T08:38:10;10.40;;;5.63;;
72674;SDS011;60752;53.962;9.614;2023-07-29T09:08:12;7.27;;;4.20;;
72674;SDS011;60752;53.962;9.614;2023-07-29T09:38:14;5.57;;;3.30;;
72674;SDS011;60752;53.962;9.614;2023-07-29T10:08:16;5.67;;;3.33;;
72674;SDS011;60752;53.962;9.614;2023-07-29T10:38:19;7.43;;;2.47;;
72674;SDS011;60752;53.962;9.614;2023-07-29T11:08:25;3.60;;;1.57;;
72674;SDS011;60752;53.962;9.614;2023-07-29T11:38:28;3.83;;;1.60;;
72674;SDS011;60752;53.962;9.614;2023-07-29T12:08:29;5.50;;;1.80;;
72674;SDS011;60752;53.962;9.614;2023-07-29T12:38:31;4.30;;;1.93;;
72674;SDS011;60752;53.962;9.614;2023-07-29T13:08:33;8.07;;;1.80;;
72674;SDS011;60752;53.962;9.614;2023-07-29T13:38:34;3.73;;;1.60;;
72674;SDS011;60752;53.962;9.614;2023-07-29T14:08:36;4.70;;;1.60;;
72674;SDS011;60752;53.962;9.614;2023-07-29T14:38:37;4.83;;;2.30;;
72674;SDS011;60752;53.962;9.614;2023-07-29T15:08:39;6.43;;;1.73;;
72674;SDS011;60752;53.962;9.614;2023-07-29T15:38:41;5.37;;;2.17;;
72674;SDS011;60752;53.962;9.614;2023-07-29T16:08:42;5.03;;;1.70;;
72674;SDS011;60752;53.962;9.614;2023-07-29T16:38:44;5.43;;;1.53;;
72674;SDS011;60752;53.962;9.614;2023-07-29T17:08:46;6.63;;;2.13;;
72674;SDS011;60752;53.962;9.614;2023-07-29T17:38:47;3.80;;;1.50;;
72674;SDS011;60752;53.962;9.614;2023-07-29T18:08:49;5.33;;;1.60;;
72674;SDS011;60752;53.962;9.614;2023-07-29T18:38:51;8.87;;;2.10;;
72674;SDS011;60752;53.962;9.614;2023-07-29T19:08:53;5.93;;;1.97;;
72674;SDS011;60752;53.962;9.614;2023-07-29T19:38:54;6.33;;;2.20;;
72674;SDS011;60752;53.962;9.614;2023-07-29T20:08:57;9.30;;;2.40;;
72674;SDS011;60752;53.962;9.614;2023-07-29T20:38:59;7.50;;;2.20;;
72674;SDS011;60752;53.962;9.614;2023-07-29T21:09:01;7.10;;;2.17;;
72674;SDS011;60752;53.962;9.614;2023-07-29T21:39:03;9.13;;;3.23;;
72674;SDS011;60752;53.962;9.614;2023-07-29T22:09:04;4.47;;;2.20;;
72674;SDS011;60752;53.962;9.614;2023-07-29T22:39:06;8.43;;;2.93;;
72674;SDS011;60752;53.962;9.614;2023-07-29T23:09:08;7.73;;;3.30;;
72674;SDS011;60752;53.962;9.614;2023-07-29T23:39:09;11.00;;;3.70;;
